Terminal Aerodrome Forecast
Issued by NWS

Current Version | Previous Version | Text Only | Print | Product List | Glossary On
Versions: 1 2 3 4 5 6 7 8 9 10 11 12
000
FTUS46 KMFR 312300
TAFLMT
TAF
KLMT 312320Z 0100/0124 30010KT P6SM VCTS BKN060CB BKN200
     FM010500 VRB03KT P6SM SCT200
     FM012300 32010KT P6SM SCT200=

USA.gov is the U.S. government's official web portal to all federal, state and local government web resources and services.